Terminal Aerodrome Forecast
Issued by NWS Grand Forks, ND

Home | Current Version | Previous Version | Text Only | Print | Product List | Glossary Off
Versions: 1 2 3 4 5 6 7 8 9 10 11 12 13 14 15 16 17 18 19 20 21

000
FTUS43 KFGF 161623 AAC
TAFGFK
TAF AMD
KGFK 161623Z 1616/1712 VRB06KT P6SM VCSH OVC020
      TEMPO 1616/1618 4SM -RA BR BKN007
     FM161800 VRB06KT P6SM VCSH OVC016
     FM162300 02007KT P6SM BKN020
     FM170300 VRB05KT P6SM SCT030=

USA.gov is the U.S. government's official web portal to all federal, state and local government web resources and services.